EDDN Airport Information

Runway Information
Runway 10 Length 8858 ft width 148 ft
Elevation 1022 ft Threshold 0 ft Heading 99
Runway 28 Length 8858 ft Width 148 ft
Elevation 1046 ft Threshold 0 ft Heading 279
Airport Frequencies
Type AFIS Name MUNCHEN IN Frequency 120.65 MHZ
Type ATIS Name ATIS Frequency 123.075 MHZ
Type DIR Name DIR Frequency 119.475 MHZ
Type GND Name GND Frequency 118.1 MHZ
Type RDR Name MUNCHEN RA Frequency 118.975 MHZ
Type TWR Name TWR Frequency 118.3 MHZ
Airport Navaids
Type DME Name Nurnberg Frequency 113100 KHZ
Type NDB Name Rothenbach Frequency 415 KHZ
Airport Weather Information & NOTAM
ADDS - METARS form results

(1056 UTC 21 April 2019)
Data provider http://aviationweather.gov/metar/data/
 
METAR text: EDDN 211050Z 12008KT 070V180 CAVOK 22/M04 Q1020 NOSIG
Conditions at: EDDN (NUERNBERG , DE) observed 1050 UTC 21 April 2019
Temperature: 22.0°C (72°F)
Dewpoint: -4.0°C (25°F) [RH = 17%]
Pressure (altimeter): 30.12 inches Hg (1020.0 mb)
Winds: from the ESE (120 degrees) at 9 MPH (8 knots; 4.1 m/s)
Visibility: 6 or more miles (10+ km)
Ceiling: ceiling and visibility are OK
Clouds: unknown
Weather: no significant weather observed at this time

METAR text: EDDN 211020Z 11009KT 050V170 CAVOK 22/M04 Q1021 NOSIG
Conditions at: EDDN (NUERNBERG , DE) observed 1020 UTC 21 April 2019
Temperature: 22.0°C (72°F)
Dewpoint: -4.0°C (25°F) [RH = 17%]
Pressure (altimeter): 30.15 inches Hg (1021.0 mb)
Winds: from the ESE (110 degrees) at 10 MPH (9 knots; 4.6 m/s)
Visibility: 6 or more miles (10+ km)
Ceiling: ceiling and visibility are OK
Clouds: unknown
Weather: no significant weather observed at this time

Forecast for: EDDN (NUERNBERG , DE)
Text: TAF EDDN 210500Z 2106/2206 VRB02KT CAVOK
Forecast period: 0600 to 0800 UTC 21 April 2019
Forecast type: FROM: standard forecast or significant change
Winds: variable direction winds at 2 MPH (2 knots; 1.0 m/s)
Visibility: 6 or more miles 10+ km)
Ceiling: unknown
Clouds: missing
Weather: NSW  (no significant weather)
Text: BECMG 2108/2110 10007KT
Forecast period: 0800 to 1800 UTC 21 April 2019
Forecast type: BECOMING: Conditions expected to become as follows by 1000 UTC 21 April 2019
Winds: from the E (100 degrees) at 8 MPH (7 knots; 3.6 m/s)
Visibility: 6 or more miles 10+ km)
Ceiling: unknown
Clouds: missing
Weather: NSW  (no significant weather)
Text: BECMG 2118/2120 VRB02KT
Forecast period: 1800 UTC 21 April 2019 to 0600 UTC 22 April 2019
Forecast type: BECOMING: Conditions expected to become as follows by 2000 UTC 21 April 2019
Winds: variable direction winds at 2 MPH (2 knots; 1.0 m/s)
Visibility: 6 or more miles 10+ km)
Ceiling: unknown
Clouds: missing
Weather: NSW  (no significant weather)